Time;durP1;ratioP1;P1;durP2;ratioP2;P2;SDS_P1;SDS_P2;PMS_P1;PMS_P2;Temp;Humidity;BMP_temperature;BMP_pressure;BME280_temperature;BME280_humidity;BME280_pressure;Samples;Min_cycle;Max_cycle;Signal;HPM_P1;HPM_P2
2022/06/03 00:01:04;;;;;;;;;;;;;;;13.21;63.08;100305.13;4922837;29;1299;-95
2022/06/03 00:03:30;;;;;;;;;;;;;;;13.20;63.20;100311.56;4922550;29;1507;-95
2022/06/03 00:05:57;;;;;;;;;;;;;;;13.18;63.11;100301.00;4917929;29;1823;-94
2022/06/03 00:08:23;;;;;;;;;;;;;;;13.18;63.24;100298.31;4915485;29;1827;-94
2022/06/03 00:10:50;;;;;;;;;;;;;;;13.17;63.02;100302.06;4915079;29;2008;-94
2022/06/03 00:13:16;;;;;;;;;;;;;;;13.16;63.12;100305.84;4919773;29;1194;-94
2022/06/03 00:15:43;;;;;;;;;;;;;;;13.16;62.97;100308.53;4922395;29;1985;-95
2022/06/03 00:18:10;;;;;;;;;;;;;;;13.15;63.03;100304.19;4922487;29;1287;-95
2022/06/03 00:20:36;;;;;;;;;;;;;;;13.14;63.20;100297.13;4917578;29;2139;-94
2022/06/03 00:23:03;;;;;;;;;;;;;;;13.14;63.05;100299.84;4919632;29;1902;-95
2022/06/03 00:25:30;;;;;;;;;;;;;;;13.13;63.10;100303.63;4909779;29;2184;-94
2022/06/03 00:27:56;;;;;;;;;;;;;;;13.13;63.02;100311.72;4929116;29;2539;-94
2022/06/03 00:30:23;;;;;;;;;;;;;;;13.12;63.05;100306.56;4918027;29;1910;-95
2022/06/03 00:32:50;;;;;;;;;;;;;;;13.11;62.93;100313.03;4920625;29;1942;-94
2022/06/03 00:35:16;;;;;;;;;;;;;;;13.10;63.17;100300.59;4917839;29;2156;-95
2022/06/03 00:37:43;;;;;;;;;;;;;;;13.09;63.07;100297.06;4906801;29;1786;-94
2022/06/03 00:40:09;;;;;;;;;;;;;;;13.09;63.01;100301.66;4914670;29;2168;-94
2022/06/03 00:42:36;;;;;;;;;;;;;;;13.09;63.00;100304.34;4921895;29;1197;-95
2022/06/03 00:45:02;;;;;;;;;;;;;;;13.08;63.01;100313.50;4915524;29;3066;-94
2022/06/03 00:47:29;;;;;;;;;;;;;;;13.07;62.90;100312.69;4918264;29;2294;-94
2022/06/03 00:49:55;;;;;;;;;;;;;;;13.06;62.96;100311.06;4902596;29;1194;-94
2022/06/03 00:52:22;;;;;;;;;;;;;;;13.06;62.86;100304.81;4919269;29;1013;-94
2022/06/03 00:54:48;;;;;;;;;;;;;;;13.05;63.03;100314.81;4902836;29;1910;-95
2022/06/03 00:57:15;;;;;;;;;;;;;;;13.04;62.93;100315.88;4920661;29;1277;-94
2022/06/03 00:59:41;;;;;;;;;;;;;;;13.04;63.08;100320.47;4921748;29;1329;-94
2022/06/03 01:02:08;;;;;;;;;;;;;;;13.03;62.89;100310.72;4921634;29;1207;-95
2022/06/03 01:04:35;;;;;;;;;;;;;;;13.03;62.88;100316.13;4902805;29;1898;-95
2022/06/03 01:07:01;;;;;;;;;;;;;;;13.02;62.88;100314.47;4931953;29;2020;-95
2022/06/03 01:09:28;;;;;;;;;;;;;;;13.01;62.95;100321.78;4921398;29;1183;-95
2022/06/03 01:11:54;;;;;;;;;;;;;;;13.00;62.85;100320.16;4938286;29;968;-94
2022/06/03 01:14:21;;;;;;;;;;;;;;;13.00;62.86;100320.16;4938052;29;1049;-95
2022/06/03 01:16:47;;;;;;;;;;;;;;;12.99;62.80;100321.19;4938210;29;1946;-95
2022/06/03 01:19:14;;;;;;;;;;;;;;;12.99;62.85;100323.06;4921402;29;1179;-94
2022/06/03 01:21:40;;;;;;;;;;;;;;;12.98;62.70;100322.25;4921332;29;4765;-95
2022/06/03 01:24:07;;;;;;;;;;;;;;;12.97;62.97;100323.34;4923806;29;1459;-95
2022/06/03 01:26:34;;;;;;;;;;;;;;;12.96;62.84;100325.19;4919408;29;1314;-95
2022/06/03 01:29:00;;;;;;;;;;;;;;;12.96;62.58;100321.66;4921452;29;1190;-94
2022/06/03 01:31:26;;;;;;;;;;;;;;;12.95;62.67;100318.16;4937504;29;1360;-95
2022/06/03 01:33:53;;;;;;;;;;;;;;;12.94;62.71;100323.78;4920656;29;1518;-94
2022/06/03 01:36:20;;;;;;;;;;;;;;;12.94;62.87;100321.06;4920900;29;1972;-94
2022/06/03 01:38:46;;;;;;;;;;;;;;;12.92;62.90;100315.94;4938265;29;970;-95
2022/06/03 01:41:13;;;;;;;;;;;;;;;12.91;62.63;100317.00;4920838;29;1409;-94
2022/06/03 01:43:39;;;;;;;;;;;;;;;12.91;62.68;100311.59;4920789;29;1110;-95
2022/06/03 01:46:06;;;;;;;;;;;;;;;12.90;62.85;100317.22;4920730;29;1237;-94
2022/06/03 01:48:32;;;;;;;;;;;;;;;12.90;62.74;100319.94;4920986;29;1186;-95
2022/06/03 01:50:59;;;;;;;;;;;;;;;12.88;62.68;100320.19;4910249;29;2201;-95
2022/06/03 01:53:25;;;;;;;;;;;;;;;12.88;62.51;100322.03;4916207;29;2309;-95
2022/06/03 01:55:52;;;;;;;;;;;;;;;12.88;62.64;100313.94;4920846;29;1919;-94
2022/06/03 01:58:19;;;;;;;;;;;;;;;12.88;62.60;100322.03;4937643;29;1172;-93
2022/06/03 02:00:46;;;;;;;;;;;;;;;12.86;62.83;100321.50;4920749;29;1330;-95
2022/06/03 02:03:12;;;;;;;;;;;;;;;12.85;62.67;100317.97;4920712;29;1650;-95
2022/06/03 02:05:39;;;;;;;;;;;;;;;12.85;62.52;100323.38;4920702;29;1303;-94
2022/06/03 02:08:05;;;;;;;;;;;;;;;12.84;62.59;100329.00;4920839;29;1517;-95
2022/06/03 02:10:32;;;;;;;;;;;;;;;12.83;62.72;100332.78;4921118;29;1325;-94
2022/06/03 02:12:58;;;;;;;;;;;;;;;12.83;62.77;100332.78;4920970;29;1553;-94
2022/06/03 02:15:25;;;;;;;;;;;;;;;12.81;62.64;100335.72;4920179;29;2012;-94
2022/06/03 02:17:52;;;;;;;;;;;;;;;12.81;62.51;100333.00;4921059;29;1309;-94
2022/06/03 02:20:18;;;;;;;;;;;;;;;12.80;62.56;100333.25;4920385;29;1302;-94
2022/06/03 02:22:45;;;;;;;;;;;;;;;12.79;62.73;100332.41;4911805;29;1322;-94
2022/06/03 02:25:11;;;;;;;;;;;;;;;12.78;62.83;100336.19;4901878;29;1309;-95
2022/06/03 02:27:38;;;;;;;;;;;;;;;12.77;62.88;100334.56;4903156;29;1351;-94
2022/06/03 02:32:49;;;;;;;;;;;;;;;12.76;62.72;100341.00;4918057;29;2009;-95
2022/06/03 02:35:15;;;;;;;;;;;;;;;12.76;62.64;100353.69;4919479;29;1981;-94
2022/06/03 02:37:42;;;;;;;;;;;;;;;12.74;62.64;100343.13;4921010;29;1311;-95
2022/06/03 02:40:09;;;;;;;;;;;;;;;12.75;62.49;100347.47;4921256;29;1348;-94
2022/06/03 02:42:36;;;;;;;;;;;;;;;12.73;62.59;100347.72;4920313;29;1526;-95
2022/06/03 02:45:03;;;;;;;;;;;;;;;12.72;62.56;100351.47;4922058;29;1969;-94
2022/06/03 02:47:29;;;;;;;;;;;;;;;12.72;62.57;100348.78;4924273;29;1325;-95
2022/06/03 02:49:56;;;;;;;;;;;;;;;12.70;62.75;100345.47;4940446;29;1301;-94
2022/06/03 02:52:22;;;;;;;;;;;;;;;12.70;62.51;100345.47;4923635;29;1697;-94
2022/06/03 02:54:49;;;;;;;;;;;;;;;12.69;62.48;100348.44;4923177;29;1826;-95
2022/06/03 02:57:16;;;;;;;;;;;;;;;12.68;62.51;100341.41;4923900;29;1907;-94
2022/06/03 02:59:42;;;;;;;;;;;;;;;12.69;62.58;100343.03;4924538;29;1426;-94
2022/06/03 03:02:09;;;;;;;;;;;;;;;12.67;62.49;100345.13;4923639;29;1206;-95
2022/06/03 03:04:35;;;;;;;;;;;;;;;12.67;62.46;100345.13;4909049;29;2957;-94
2022/06/03 03:07:02;;;;;;;;;;;;;;;12.65;62.50;100345.38;4922724;29;1289;-95
2022/06/03 03:09:29;;;;;;;;;;;;;;;12.65;62.55;100347.28;4924306;29;1186;-94
2022/06/03 03:11:56;;;;;;;;;;;;;;;12.65;62.45;100347.28;4923053;29;1196;-94
2022/06/03 03:14:22;;;;;;;;;;;;;;;12.64;62.63;100341.03;4923286;29;1310;-93
2022/06/03 03:16:48;;;;;;;;;;;;;;;12.64;62.62;100343.72;4922881;29;2216;-95
2022/06/03 03:19:15;;;;;;;;;;;;;;;12.64;62.50;100340.22;4938532;29;1186;-94
2022/06/03 03:21:41;;;;;;;;;;;;;;;12.62;62.61;100332.34;4917753;29;1571;-94
2022/06/03 03:24:08;;;;;;;;;;;;;;;12.63;62.55;100338.59;4923577;29;1187;-95
2022/06/03 03:26:34;;;;;;;;;;;;;;;12.62;62.47;100343.16;4923571;29;1301;-94
2022/06/03 03:29:01;;;;;;;;;;;;;;;12.62;62.31;100343.16;4922860;29;1304;-95
2022/06/03 03:31:27;;;;;;;;;;;;;;;12.61;62.34;100346.91;4921879;29;1823;-94
2022/06/03 03:33:54;;;;;;;;;;;;;;;12.61;62.33;100351.50;4922454;29;1893;-94
2022/06/03 03:36:20;;;;;;;;;;;;;;;12.61;62.50;100351.50;4922863;29;1982;-94
2022/06/03 03:38:47;;;;;;;;;;;;;;;12.59;62.51;100346.34;4923044;29;1375;-94
2022/06/03 03:41:13;;;;;;;;;;;;;;;12.60;62.39;100352.56;4922643;29;1558;-95
2022/06/03 03:43:40;;;;;;;;;;;;;;;12.58;62.61;100350.09;4920865;29;1291;-94
2022/06/03 03:46:06;;;;;;;;;;;;;;;12.57;62.40;100350.34;4929057;29;1175;-94
2022/06/03 03:48:33;;;;;;;;;;;;;;;12.56;62.35;100354.09;4923000;29;1204;-95
2022/06/03 03:50:59;;;;;;;;;;;;;;;12.57;62.28;100364.66;4922300;29;1306;-94
2022/06/03 03:53:29;;;;;;;;;;;;;;;12.57;62.36;100370.06;4924596;29;4472;-94
2022/06/03 03:55:55;;;;;;;;;;;;;;;12.57;62.35;100366.53;4921540;29;1887;-94
2022/06/03 03:58:23;;;;;;;;;;;;;;;12.54;62.27;100369.72;4922916;29;2041;-94
2022/06/03 04:00:51;;;;;;;;;;;;;;;12.54;62.43;100372.44;4922703;29;1573;-94
2022/06/03 04:03:17;;;;;;;;;;;;;;;12.54;62.13;100375.13;4921690;29;2240;-94
2022/06/03 04:05:44;;;;;;;;;;;;;;;12.52;62.32;100375.34;4922364;29;1170;-94
2022/06/03 04:08:10;;;;;;;;;;;;;;;12.52;62.47;100366.44;4922463;29;1207;-95
2022/06/03 04:10:37;;;;;;;;;;;;;;;12.52;62.34;100378.06;4922238;29;1498;-94
2022/06/03 04:13:03;;;;;;;;;;;;;;;12.52;62.44;100379.94;4921106;29;2802;-94
2022/06/03 04:15:30;;;;;;;;;;;;;;;12.51;62.22;100384.53;4922380;29;1776;-94
2022/06/03 04:17:56;;;;;;;;;;;;;;;12.50;62.19;100391.00;4915311;29;1971;-94
2022/06/03 04:20:23;;;;;;;;;;;;;;;12.49;62.30;100384.75;4922239;29;1171;-94
2022/06/03 04:22:50;;;;;;;;;;;;;;;12.49;62.25;100392.03;4915384;29;2311;-94
2022/06/03 04:25:16;;;;;;;;;;;;;;;12.48;62.28;100391.22;4911725;29;1315;-94
2022/06/03 04:27:43;;;;;;;;;;;;;;;12.48;62.24;100385.81;4922140;29;1185;-94
2022/06/03 04:30:09;;;;;;;;;;;;;;;12.48;62.23;100388.50;4922039;29;1233;-94
2022/06/03 04:32:36;;;;;;;;;;;;;;;12.48;62.21;100387.69;4935192;29;1889;-94
2022/06/03 04:35:02;;;;;;;;;;;;;;;12.48;62.30;100387.69;4921935;29;1413;-94
2022/06/03 04:37:29;;;;;;;;;;;;;;;12.48;62.20;100387.69;4921664;29;1911;-94
2022/06/03 04:39:55;;;;;;;;;;;;;;;12.48;62.13;100377.72;4921927;29;1313;-94
2022/06/03 04:42:22;;;;;;;;;;;;;;;12.47;62.23;100384.19;4922389;29;1253;-94
2022/06/03 04:44:48;;;;;;;;;;;;;;;12.46;62.14;100390.63;4938733;29;989;-94
2022/06/03 04:47:15;;;;;;;;;;;;;;;12.46;62.07;100398.72;4922137;29;1159;-94
2022/06/03 04:49:41;;;;;;;;;;;;;;;12.47;62.05;100396.84;4921712;29;1177;-94
2022/06/03 04:52:08;;;;;;;;;;;;;;;12.46;62.03;100401.44;4921526;29;1514;-94
2022/06/03 04:54:35;;;;;;;;;;;;;;;12.45;62.21;100405.19;4916485;29;2097;-94
2022/06/03 04:57:01;;;;;;;;;;;;;;;12.46;62.15;100403.31;4902536;29;1911;-93
2022/06/03 04:59:28;;;;;;;;;;;;;;;12.46;62.18;100400.59;4902959;29;1209;-94
2022/06/03 05:01:54;;;;;;;;;;;;;;;12.45;62.12;100407.91;4902879;29;1248;-94
2022/06/03 05:04:21;;;;;;;;;;;;;;;12.45;62.08;100405.19;4902722;29;1174;-94
2022/06/03 05:06:48;;;;;;;;;;;;;;;12.44;62.00;100402.72;4902407;29;1182;-93
2022/06/03 05:09:14;;;;;;;;;;;;;;;12.44;62.02;100403.56;4902429;29;1188;-94
2022/06/03 05:11:41;;;;;;;;;;;;;;;12.44;62.08;100408.13;4915872;29;1291;-94
2022/06/03 05:14:07;;;;;;;;;;;;;;;12.44;61.95;100410.81;4937994;29;1174;-94
2022/06/03 05:16:34;;;;;;;;;;;;;;;12.43;62.19;100403.78;4921076;29;1955;-94
2022/06/03 05:19:00;;;;;;;;;;;;;;;12.44;62.03;100400.00;4921511;29;1083;-94
2022/06/03 05:21:27;;;;;;;;;;;;;;;12.42;62.10;100408.38;4921424;29;1653;-94
2022/06/03 05:23:54;;;;;;;;;;;;;;;12.43;61.93;100409.19;4912952;29;2073;-94
2022/06/03 05:26:21;;;;;;;;;;;;;;;12.42;62.13;100402.97;4927668;29;2063;-94
2022/06/03 05:28:47;;;;;;;;;;;;;;;12.41;62.01;100397.78;4934115;29;1373;-95
2022/06/03 05:31:13;;;;;;;;;;;;;;;12.42;62.06;100407.56;4921824;29;1356;-94
2022/06/03 05:33:40;;;;;;;;;;;;;;;12.42;62.06;100407.56;4918864;29;2037;-94
2022/06/03 05:36:07;;;;;;;;;;;;;;;12.43;62.16;100412.69;4901985;29;2089;-94
2022/06/03 05:38:33;;;;;;;;;;;;;;;12.42;62.15;100419.16;4902075;29;1785;-94
2022/06/03 05:41:00;;;;;;;;;;;;;;;12.42;62.14;100418.34;4910283;29;2099;-93
2022/06/03 05:43:27;;;;;;;;;;;;;;;12.41;62.03;100422.94;4921249;29;1328;-94
2022/06/03 05:45:54;;;;;;;;;;;;;;;12.41;62.16;100417.53;4920278;29;1409;-94
2022/06/03 05:48:20;;;;;;;;;;;;;;;12.42;61.96;100424.56;4919226;29;2745;-93
2022/06/03 05:50:47;;;;;;;;;;;;;;;12.42;62.15;100418.34;4915773;29;2077;-94
2022/06/03 05:53:13;;;;;;;;;;;;;;;12.43;62.01;100428.09;4920905;29;1203;-94
2022/06/03 05:55:40;;;;;;;;;;;;;;;12.43;62.06;100428.09;4922486;29;2211;-94
2022/06/03 05:58:07;;;;;;;;;;;;;;;12.44;61.85;100427.03;4937037;29;1899;-93
2022/06/03 06:00:33;;;;;;;;;;;;;;;12.43;61.98;100419.97;4920218;29;2065;-94
2022/06/03 06:03:00;;;;;;;;;;;;;;;12.43;61.72;100434.31;4934328;29;1510;-94
2022/06/03 06:05:26;;;;;;;;;;;;;;;12.45;61.80;100428.69;4901894;29;1278;-93
2022/06/03 06:07:53;;;;;;;;;;;;;;;12.45;61.91;100434.91;4907477;29;1713;-93
2022/06/03 06:10:19;;;;;;;;;;;;;;;12.47;61.73;100432.81;4915243;29;2155;-93
2022/06/03 06:12:47;;;;;;;;;;;;;;;12.47;61.74;100435.50;4918552;29;2059;-93
2022/06/03 06:15:13;;;;;;;;;;;;;;;12.48;61.55;100436.31;4914143;29;4039;-94
2022/06/03 06:17:40;;;;;;;;;;;;;;;12.46;61.77;100450.03;4915628;29;2142;-94
2022/06/03 06:20:06;;;;;;;;;;;;;;;12.48;61.50;100442.53;4940697;29;974;-93
2022/06/03 06:22:34;;;;;;;;;;;;;;;12.46;61.72;100441.94;4917700;29;4559;-93
2022/06/03 06:25:01;;;;;;;;;;;;;;;12.49;61.58;100446.06;4922313;29;4237;-93
2022/06/03 06:27:27;;;;;;;;;;;;;;;12.49;61.74;100441.47;4924247;29;3763;-93
2022/06/03 06:29:54;;;;;;;;;;;;;;;12.49;61.70;100454.16;4920572;29;2116;-93
2022/06/03 06:32:20;;;;;;;;;;;;;;;12.48;61.47;100456.03;4916988;29;2849;-93
2022/06/03 06:34:47;;;;;;;;;;;;;;;12.50;61.53;100451.25;4939287;29;1864;-93
2022/06/03 06:37:13;;;;;;;;;;;;;;;12.51;61.43;100460.16;4923683;29;1907;-94
2022/06/03 06:39:40;;;;;;;;;;;;;;;12.49;61.70;100452.28;4923943;29;2145;-93
2022/06/03 06:42:06;;;;;;;;;;;;;;;12.50;61.70;100453.94;4924483;29;2566;-94
2022/06/03 06:44:33;;;;;;;;;;;;;;;12.51;61.56;100457.47;4920303;29;2233;-94
2022/06/03 06:47:00;;;;;;;;;;;;;;;12.52;61.42;100458.28;4905275;29;1235;-94
2022/06/03 06:49:26;;;;;;;;;;;;;;;12.52;61.58;100458.28;4922978;29;2050;-94
2022/06/03 06:51:53;;;;;;;;;;;;;;;12.50;61.58;100456.63;4916906;29;2493;-93
2022/06/03 06:54:19;;;;;;;;;;;;;;;12.52;61.53;100466.38;4922713;29;1328;-93
2022/06/03 06:56:46;;;;;;;;;;;;;;;12.51;61.75;100465.56;4923914;29;1992;-93
2022/06/03 06:59:12;;;;;;;;;;;;;;;12.50;61.69;100464.75;4936253;29;2240;-93
2022/06/03 07:01:39;;;;;;;;;;;;;;;12.51;61.63;100470.97;4907122;29;2391;-93
2022/06/03 07:04:06;;;;;;;;;;;;;;;12.51;61.60;100476.38;4908606;29;1278;-94
2022/06/03 07:06:32;;;;;;;;;;;;;;;12.53;61.48;100470.72;4923601;29;1169;-93
2022/06/03 07:08:59;;;;;;;;;;;;;;;12.52;61.79;100469.91;4921736;29;1504;-90
2022/06/03 07:11:25;;;;;;;;;;;;;;;12.52;61.70;100477.19;4920186;29;2457;-94
2022/06/03 07:13:52;;;;;;;;;;;;;;;12.51;61.85;100470.97;4908574;29;1700;-93
2022/06/03 07:19:47;;;;;;;;;;;;;;;12.52;61.73;100478.00;4923260;29;1223;-93
2022/06/03 07:21:46;;;;;;;;;;;;;;;12.52;61.57;100475.28;4918922;29;1388;-94
2022/06/03 07:24:12;;;;;;;;;;;;;;;12.53;61.61;100481.53;4922923;29;2093;-93
2022/06/03 07:26:39;;;;;;;;;;;;;;;12.52;61.68;100469.91;4923155;29;1211;-93
2022/06/03 07:29:05;;;;;;;;;;;;;;;12.52;61.88;100467.19;4921120;29;2086;-93
2022/06/03 07:31:31;;;;;;;;;;;;;;;12.53;61.65;100478.81;4912277;29;2119;-93
2022/06/03 07:33:58;;;;;;;;;;;;;;;12.53;61.82;100481.53;4920055;29;1942;-94
2022/06/03 07:36:24;;;;;;;;;;;;;;;12.53;61.65;100487.78;4904122;29;1301;-93
2022/06/03 07:38:50;;;;;;;;;;;;;;;12.54;61.83;100480.47;4916523;29;2169;-93
2022/06/03 07:41:17;;;;;;;;;;;;;;;12.53;61.69;100479.66;4922795;29;1271;-94
2022/06/03 07:43:43;;;;;;;;;;;;;;;12.53;61.78;100486.91;4921327;29;1762;-93
2022/06/03 07:46:10;;;;;;;;;;;;;;;12.53;61.83;100479.66;4937162;29;2205;-94
2022/06/03 07:48:37;;;;;;;;;;;;;;;12.55;61.89;100490.22;4922567;29;1617;-94
2022/06/03 07:51:03;;;;;;;;;;;;;;;12.55;61.80;100484.81;4922371;29;2097;-93
2022/06/03 07:53:30;;;;;;;;;;;;;;;12.55;61.80;100480.22;4920046;29;2117;-94
2022/06/03 07:55:56;;;;;;;;;;;;;;;12.54;61.71;100484.00;4918466;29;1353;-93
2022/06/03 07:58:23;;;;;;;;;;;;;;;12.55;61.59;100484.81;4920434;29;2218;-93
2022/06/03 08:00:49;;;;;;;;;;;;;;;12.56;61.70;100470.25;4909288;29;2358;-93
2022/06/03 08:03:16;;;;;;;;;;;;;;;12.55;61.73;100484.81;4909309;29;1207;-93
2022/06/03 08:05:43;;;;;;;;;;;;;;;12.54;61.85;100481.31;4921255;29;1664;-93
2022/06/03 08:11:00;;;;;;;;;;;;;;;12.55;61.61;100482.94;4904613;29;1864;-93
2022/06/03 08:13:26;;;;;;;;;;;;;;;12.56;61.96;100487.31;4907081;29;2672;-93
2022/06/03 08:15:53;;;;;;;;;;;;;;;12.58;61.89;100487.88;4920395;29;2227;-93
2022/06/03 08:18:20;;;;;;;;;;;;;;;12.57;61.88;100478.13;4912267;29;1903;-93
2022/06/03 08:20:47;;;;;;;;;;;;;;;12.56;61.79;100484.59;4922001;29;1528;-94
2022/06/03 08:23:13;;;;;;;;;;;;;;;12.59;61.87;100485.97;4921521;29;1835;-93
2022/06/03 08:25:40;;;;;;;;;;;;;;;12.57;61.73;100483.53;4922074;29;1256;-93
2022/06/03 08:28:07;;;;;;;;;;;;;;;12.58;61.73;100482.47;4922217;29;1203;-93
2022/06/03 08:30:33;;;;;;;;;;;;;;;12.58;61.91;100490.56;4922021;29;1407;-94
2022/06/03 08:33:00;;;;;;;;;;;;;;;12.59;61.90;100494.94;4922562;29;1866;-93
2022/06/03 08:35:26;;;;;;;;;;;;;;;12.58;61.77;100493.28;4945793;29;957;-92
2022/06/03 08:37:53;;;;;;;;;;;;;;;12.59;61.81;100503.03;4921165;29;1978;-94
2022/06/03 08:40:20;;;;;;;;;;;;;;;12.61;61.79;100508.19;4922126;29;1317;-93
2022/06/03 08:42:46;;;;;;;;;;;;;;;12.60;61.99;100507.38;4916644;29;2045;-93
2022/06/03 08:45:13;;;;;;;;;;;;;;;12.60;61.80;100501.16;4908448;29;1267;-94
2022/06/03 08:47:40;;;;;;;;;;;;;;;12.61;61.95;100511.72;4921975;29;1336;-93
2022/06/03 08:50:06;;;;;;;;;;;;;;;12.61;62.02;100510.91;4921221;29;1902;-93
2022/06/03 08:52:33;;;;;;;;;;;;;;;12.62;61.89;100510.69;4909092;29;4579;-94
2022/06/03 08:54:59;;;;;;;;;;;;;;;12.62;61.88;100512.56;4912493;29;5014;-95
2022/06/03 08:57:25;;;;;;;;;;;;;;;12.62;62.06;100509.84;4917850;29;2864;-94
2022/06/03 08:59:52;;;;;;;;;;;;;;;12.63;62.20;100522.31;4910859;29;1909;-95
2022/06/03 09:02:18;;;;;;;;;;;;;;;12.63;62.11;100519.59;4920619;29;1972;-94
2022/06/03 09:04:45;;;;;;;;;;;;;;;12.63;61.95;100520.41;4921353;29;1328;-94
2022/06/03 09:07:11;;;;;;;;;;;;;;;12.63;61.95;100523.13;4910093;29;2218;-94
2022/06/03 09:09:38;;;;;;;;;;;;;;;12.65;62.10;100522.91;4910596;29;2164;-94
2022/06/03 09:12:05;;;;;;;;;;;;;;;12.64;62.01;100524.75;4906984;29;1976;-94
2022/06/03 09:14:31;;;;;;;;;;;;;;;12.65;62.15;100521.00;4902300;29;1189;-94
2022/06/03 09:16:58;;;;;;;;;;;;;;;12.65;62.23;100529.13;4916723;29;2119;-94
2022/06/03 09:19:24;;;;;;;;;;;;;;;12.67;62.13;100528.88;4937956;29;1134;-94
2022/06/03 09:21:51;;;;;;;;;;;;;;;12.67;62.25;100528.88;4917076;29;1905;-94
2022/06/03 09:24:18;;;;;;;;;;;;;;;12.67;62.14;100529.69;4917253;29;2287;-94
2022/06/03 09:26:44;;;;;;;;;;;;;;;12.68;62.01;100525.13;4937875;29;1131;-93
2022/06/03 09:29:11;;;;;;;;;;;;;;;12.69;61.98;100530.28;4921139;29;1178;-94
2022/06/03 09:31:37;;;;;;;;;;;;;;;12.69;62.08;100526.75;4919928;29;1659;-94
2022/06/03 09:34:04;;;;;;;;;;;;;;;12.70;62.37;100523.00;4915225;29;1901;-94
2022/06/03 09:36:30;;;;;;;;;;;;;;;12.69;62.37;100524.88;4915116;29;3034;-94
2022/06/03 09:38:57;;;;;;;;;;;;;;;12.71;62.39;100530.88;4911241;29;2578;-95
2022/06/03 09:41:23;;;;;;;;;;;;;;;12.71;62.40;100525.47;4913518;29;2277;-94
2022/06/03 09:43:50;;;;;;;;;;;;;;;12.72;62.35;100518.19;4915163;29;3937;-94
2022/06/03 09:46:16;;;;;;;;;;;;;;;12.73;62.20;100520.66;4934124;29;2520;-94
2022/06/03 09:48:43;;;;;;;;;;;;;;;12.73;62.53;100525.22;4920804;29;1264;-94
2022/06/03 09:51:09;;;;;;;;;;;;;;;12.74;62.25;100518.78;4919353;29;1939;-94
2022/06/03 09:53:40;;;;;;;;;;;;;;;12.75;62.23;100517.72;4916620;29;2115;-94
2022/06/03 09:56:07;;;;;;;;;;;;;;;12.76;62.36;100522.06;4923379;29;1763;-94
2022/06/03 09:58:34;;;;;;;;;;;;;;;12.76;62.27;100515.84;4924175;29;1915;-94
2022/06/03 10:01:00;;;;;;;;;;;;;;;12.77;62.28;100525.59;4920240;29;3519;-94
2022/06/03 10:03:26;;;;;;;;;;;;;;;12.78;62.37;100527.25;4921679;29;1274;-94
2022/06/03 10:05:53;;;;;;;;;;;;;;;12.79;62.51;100521.59;4922384;29;2178;-94
2022/06/03 10:08:20;;;;;;;;;;;;;;;12.80;62.33;100530.53;4922516;29;2138;-93
2022/06/03 10:13:32;;;;;;;;;;;;;;;12.82;62.33;100534.63;4940493;29;1375;-95
2022/06/03 10:16:00;;;;;;;;;;;;;;;12.84;62.44;100532.53;4923594;29;2147;-94
2022/06/03 10:18:28;;;;;;;;;;;;;;;12.84;62.58;100529.00;4922061;29;2063;-94
2022/06/03 10:20:54;;;;;;;;;;;;;;;12.85;62.65;100536.03;4922825;29;1619;-94
2022/06/03 10:23:20;;;;;;;;;;;;;;;12.84;62.70;100527.13;4922899;29;2094;-94
2022/06/03 10:25:47;;;;;;;;;;;;;;;12.86;62.45;100533.13;4922011;29;2050;-94
2022/06/03 10:28:13;;;;;;;;;;;;;;;12.87;62.77;100539.34;4924666;29;1448;-95
2022/06/03 10:30:41;;;;;;;;;;;;;;;12.88;62.56;100532.88;4921948;29;1849;-94
2022/06/03 10:33:07;;;;;;;;;;;;;;;12.88;62.61;100539.13;4924338;29;1388;-94
2022/06/03 10:35:36;;;;;;;;;;;;;;;12.89;62.50;100538.06;4919466;29;2187;-94
2022/06/03 10:38:03;;;;;;;;;;;;;;;12.90;62.46;100542.38;4922988;29;2132;-94
2022/06/03 10:40:30;;;;;;;;;;;;;;;12.92;62.56;100536.75;4922780;29;1906;-94
2022/06/03 10:42:56;;;;;;;;;;;;;;;12.92;62.54;100548.41;4923308;29;1250;-93
2022/06/03 10:45:22;;;;;;;;;;;;;;;12.94;62.64;100548.16;4919888;29;2069;-94
2022/06/03 10:47:49;;;;;;;;;;;;;;;12.94;62.73;100549.00;4924030;29;1321;-95
2022/06/03 10:50:15;;;;;;;;;;;;;;;12.95;62.68;100549.81;4922156;29;2037;-95
2022/06/03 11:01:09;;;;;;;;;;;;;;;12.99;63.16;100548.25;4921225;29;2009;-95
2022/06/03 11:03:37;;;;;;;;;;;;;;;13.00;62.91;100549.94;4939881;29;1644;-94
2022/06/03 11:06:03;;;;;;;;;;;;;;;13.02;62.84;100549.69;4921685;29;1970;-94
2022/06/03 11:08:29;;;;;;;;;;;;;;;13.04;62.93;100548.38;4918503;29;2277;-95
2022/06/03 11:10:56;;;;;;;;;;;;;;;13.04;62.91;100547.56;4922613;29;2039;-95
2022/06/03 11:13:22;;;;;;;;;;;;;;;13.06;62.97;100550.84;4923598;29;1203;-95
2022/06/03 11:15:49;;;;;;;;;;;;;;;13.06;62.95;100549.00;4920879;29;1819;-96
2022/06/03 11:18:15;;;;;;;;;;;;;;;13.08;63.16;100559.56;4923179;29;1934;-95
2022/06/03 11:20:41;;;;;;;;;;;;;;;13.09;62.88;100555.81;4920068;29;2165;-95
2022/06/03 11:23:08;;;;;;;;;;;;;;;13.10;63.10;100552.03;4930156;29;4859;-95
2022/06/03 11:25:35;;;;;;;;;;;;;;;13.11;62.88;100559.88;4928602;29;3130;-95
2022/06/03 11:28:02;;;;;;;;;;;;;;;13.11;63.19;100548.25;4922851;29;1768;-95
2022/06/03 11:30:28;;;;;;;;;;;;;;;13.12;63.07;100560.75;4921051;29;2141;-95
2022/06/03 11:32:55;;;;;;;;;;;;;;;13.14;63.19;100554.00;4919555;29;2372;-95
2022/06/03 11:35:21;;;;;;;;;;;;;;;13.16;63.28;100548.38;4922083;29;2041;-95
2022/06/03 11:37:48;;;;;;;;;;;;;;;13.16;63.36;100554.59;4935920;29;2150;-95
2022/06/03 11:40:14;;;;;;;;;;;;;;;13.18;63.44;100546.28;4954086;29;3260;-95
2022/06/03 11:42:41;;;;;;;;;;;;;;;13.19;63.45;100553.31;4924870;29;1999;-95
2022/06/03 11:45:08;;;;;;;;;;;;;;;13.20;63.60;100549.53;4922442;29;2127;-95
2022/06/03 11:47:34;;;;;;;;;;;;;;;13.21;63.29;100548.50;4921708;29;1897;-95
2022/06/03 11:50:00;;;;;;;;;;;;;;;13.22;63.38;100544.72;4917646;29;2517;-95
2022/06/03 11:52:27;;;;;;;;;;;;;;;13.25;63.14;100548.84;4918845;29;2419;-95
2022/06/03 11:54:53;;;;;;;;;;;;;;;13.25;63.54;100555.09;4915929;29;2023;-95
2022/06/03 11:57:20;;;;;;;;;;;;;;;13.26;63.30;100553.22;4922800;29;2247;-95
2022/06/03 11:59:47;;;;;;;;;;;;;;;13.27;63.52;100550.28;4916421;29;2109;-96
2022/06/03 12:02:14;;;;;;;;;;;;;;;13.28;63.49;100560.03;4932855;29;4061;-95
2022/06/03 12:04:40;;;;;;;;;;;;;;;13.29;63.37;100556.25;4951555;29;2005;-96
2022/06/03 12:07:06;;;;;;;;;;;;;;;13.30;63.42;100547.09;4918945;29;2207;-96
2022/06/03 12:09:33;;;;;;;;;;;;;;;13.32;63.44;100563.09;4919093;29;2506;-96
2022/06/03 12:14:44;;;;;;;;;;;;;;;13.35;63.63;100566.16;4921958;29;1288;-96
2022/06/03 12:17:10;;;;;;;;;;;;;;;13.36;63.66;100565.09;4921216;29;1382;-95
2022/06/03 12:19:36;;;;;;;;;;;;;;;13.37;63.70;100569.44;4919241;29;1952;-95
2022/06/03 12:22:03;;;;;;;;;;;;;;;13.39;63.68;100575.44;4918767;29;2016;-95
2022/06/03 12:24:29;;;;;;;;;;;;;;;13.40;63.56;100568.94;4922440;29;1251;-95
2022/06/03 12:26:56;;;;;;;;;;;;;;;13.42;63.84;100571.44;4914266;29;2171;-96
2022/06/03 12:29:22;;;;;;;;;;;;;;;13.44;63.52;100565.75;4915268;29;1991;-96
2022/06/03 12:31:48;;;;;;;;;;;;;;;13.45;63.45;100568.25;4911515;29;2133;-95
2022/06/03 12:34:20;;;;;;;;;;;;;;;13.47;63.54;100568.00;4921084;29;1795;-96
2022/06/03 12:36:47;;;;;;;;;;;;;;;13.49;63.51;100571.28;4931975;29;2170;-96
2022/06/03 12:39:14;;;;;;;;;;;;;;;13.51;63.77;100569.19;4911612;29;1973;-96
2022/06/03 12:41:40;;;;;;;;;;;;;;;13.53;63.62;100577.84;4921270;29;1415;-95
2022/06/03 12:44:06;;;;;;;;;;;;;;;13.53;63.85;100567.03;4911856;29;2330;-94
2022/06/03 12:46:33;;;;;;;;;;;;;;;13.55;63.54;100573.03;4917757;29;2223;-95
2022/06/03 12:48:59;;;;;;;;;;;;;;;13.56;63.72;100575.53;4921541;29;1896;-95
2022/06/03 12:51:26;;;;;;;;;;;;;;;13.57;63.87;100574.44;4937952;29;2116;-96
2022/06/03 12:53:52;;;;;;;;;;;;;;;13.58;63.48;100580.69;4936058;29;2241;-95
2022/06/03 12:56:19;;;;;;;;;;;;;;;13.60;63.77;100590.22;4938668;29;2431;-95
2022/06/03 12:58:45;;;;;;;;;;;;;;;13.62;63.67;100573.75;4950460;29;1910;-95
2022/06/03 13:01:12;;;;;;;;;;;;;;;13.62;63.92;100577.28;4921421;29;1201;-95
2022/06/03 13:03:38;;;;;;;;;;;;;;;13.63;63.87;100573.50;4921225;29;1261;-95
2022/06/03 13:06:08;;;;;;;;;;;;;;;13.65;63.87;100575.97;4919947;29;2022;-96